sensor_id;sensor_type;location;lat;lon;timestamp;temperature;humidity
46720;DHT22;32452;51.382;-0.002;2024-03-23T00:54:25;6.40;95.40
46720;DHT22;32452;51.382;-0.002;2024-03-23T00:57:10;6.30;95.50
46720;DHT22;32452;51.382;-0.002;2024-03-23T00:59:54;6.30;95.60
46720;DHT22;32452;51.382;-0.002;2024-03-23T01:02:39;6.30;95.70
46720;DHT22;32452;51.382;-0.002;2024-03-23T01:05:24;6.30;95.90
46720;DHT22;32452;51.382;-0.002;2024-03-23T01:08:08;6.30;96.00
46720;DHT22;32452;51.382;-0.002;2024-03-23T01:10:57;6.20;96.10
46720;DHT22;32452;51.382;-0.002;2024-03-23T01:13:42;6.30;96.30
46720;DHT22;32452;51.382;-0.002;2024-03-23T01:16:27;6.30;96.40
46720;DHT22;32452;51.382;-0.002;2024-03-23T01:19:11;6.30;96.50
46720;DHT22;32452;51.382;-0.002;2024-03-23T01:21:56;6.30;96.70
46720;DHT22;32452;51.382;-0.002;2024-03-23T01:24:40;6.30;96.80
46720;DHT22;32452;51.382;-0.002;2024-03-23T01:27:25;6.30;96.90
46720;DHT22;32452;51.382;-0.002;2024-03-23T01:30:10;6.30;97.10
46720;DHT22;32452;51.382;-0.002;2024-03-23T01:32:54;6.30;97.20
46720;DHT22;32452;51.382;-0.002;2024-03-23T01:35:39;6.30;97.40
46720;DHT22;32452;51.382;-0.002;2024-03-23T01:38:24;6.20;97.50
46720;DHT22;32452;51.382;-0.002;2024-03-23T01:41:08;6.20;97.60
46720;DHT22;32452;51.382;-0.002;2024-03-23T01:43:55;6.20;97.80
46720;DHT22;32452;51.382;-0.002;2024-03-23T01:46:40;6.20;97.90
46720;DHT22;32452;51.382;-0.002;2024-03-23T01:49:26;6.20;98.10
46720;DHT22;32452;51.382;-0.002;2024-03-23T01:52:10;6.10;98.30
46720;DHT22;32452;51.382;-0.002;2024-03-23T01:54:55;6.10;98.50
46720;DHT22;32452;51.382;-0.002;2024-03-23T01:57:40;6.10;98.60
46720;DHT22;32452;51.382;-0.002;2024-03-23T02:00:24;6.10;98.70
46720;DHT22;32452;51.382;-0.002;2024-03-23T02:03:26;6.00;98.80
46720;DHT22;32452;51.382;-0.002;2024-03-23T02:06:11;6.00;98.80
46720;DHT22;32452;51.382;-0.002;2024-03-23T02:08:56;6.00;98.90
46720;DHT22;32452;51.382;-0.002;2024-03-23T02:11:40;6.00;99.10
46720;DHT22;32452;51.382;-0.002;2024-03-23T02:14:25;5.90;99.20
46720;DHT22;32452;51.382;-0.002;2024-03-23T02:17:10;5.90;99.30
46720;DHT22;32452;51.382;-0.002;2024-03-23T02:19:54;5.90;99.40
46720;DHT22;32452;51.382;-0.002;2024-03-23T02:22:39;5.90;99.50
46720;DHT22;32452;51.382;-0.002;2024-03-23T02:25:23;5.90;99.60
46720;DHT22;32452;51.382;-0.002;2024-03-23T02:28:08;5.90;99.70
46720;DHT22;32452;51.382;-0.002;2024-03-23T02:30:53;5.90;99.90
46720;DHT22;32452;51.382;-0.002;2024-03-23T02:33:37;5.80;99.90
46720;DHT22;32452;51.382;-0.002;2024-03-23T02:36:22;5.80;99.90
46720;DHT22;32452;51.382;-0.002;2024-03-23T02:39:06;5.80;99.90
46720;DHT22;32452;51.382;-0.002;2024-03-23T02:41:51;5.80;99.90
46720;DHT22;32452;51.382;-0.002;2024-03-23T02:44:36;5.80;99.90
46720;DHT22;32452;51.382;-0.002;2024-03-23T02:47:20;5.80;99.90
46720;DHT22;32452;51.382;-0.002;2024-03-23T02:50:05;5.70;99.90
46720;DHT22;32452;51.382;-0.002;2024-03-23T02:52:50;5.70;99.90
46720;DHT22;32452;51.382;-0.002;2024-03-23T02:55:35;5.70;99.90
46720;DHT22;32452;51.382;-0.002;2024-03-23T02:58:20;5.70;99.90
46720;DHT22;32452;51.382;-0.002;2024-03-23T03:01:04;5.70;99.90
46720;DHT22;32452;51.382;-0.002;2024-03-23T03:03:49;5.60;99.90
46720;DHT22;32452;51.382;-0.002;2024-03-23T03:06:33;5.60;99.90
46720;DHT22;32452;51.382;-0.002;2024-03-23T03:09:18;5.60;99.90
46720;DHT22;32452;51.382;-0.002;2024-03-23T03:12:03;5.60;99.90
46720;DHT22;32452;51.382;-0.002;2024-03-23T03:14:47;5.50;99.90
46720;DHT22;32452;51.382;-0.002;2024-03-23T03:17:32;5.50;99.90
46720;DHT22;32452;51.382;-0.002;2024-03-23T03:20:17;5.50;99.90
46720;DHT22;32452;51.382;-0.002;2024-03-23T03:23:02;5.40;99.90
46720;DHT22;32452;51.382;-0.002;2024-03-23T03:25:46;5.40;99.90
46720;DHT22;32452;51.382;-0.002;2024-03-23T03:28:34;5.40;99.90
46720;DHT22;32452;51.382;-0.002;2024-03-23T03:31:19;5.40;99.90
46720;DHT22;32452;51.382;-0.002;2024-03-23T03:34:03;5.40;99.90
46720;DHT22;32452;51.382;-0.002;2024-03-23T03:36:48;5.30;99.90
46720;DHT22;32452;51.382;-0.002;2024-03-23T03:39:33;5.30;99.90
46720;DHT22;32452;51.382;-0.002;2024-03-23T03:42:17;5.30;99.90
46720;DHT22;32452;51.382;-0.002;2024-03-23T03:45:02;5.30;99.90
46720;DHT22;32452;51.382;-0.002;2024-03-23T03:47:49;5.30;99.90
46720;DHT22;32452;51.382;-0.002;2024-03-23T03:50:34;5.20;99.90
46720;DHT22;32452;51.382;-0.002;2024-03-23T03:53:19;5.20;99.90
46720;DHT22;32452;51.382;-0.002;2024-03-23T03:56:04;5.20;99.90
46720;DHT22;32452;51.382;-0.002;2024-03-23T03:58:49;5.20;99.90
46720;DHT22;32452;51.382;-0.002;2024-03-23T04:01:34;5.20;99.90
46720;DHT22;32452;51.382;-0.002;2024-03-23T04:04:18;5.20;99.90
46720;DHT22;32452;51.382;-0.002;2024-03-23T04:07:03;5.20;99.90
46720;DHT22;32452;51.382;-0.002;2024-03-23T04:09:49;5.10;99.90
46720;DHT22;32452;51.382;-0.002;2024-03-23T04:12:34;5.10;99.90
46720;DHT22;32452;51.382;-0.002;2024-03-23T04:15:18;5.10;99.90
46720;DHT22;32452;51.382;-0.002;2024-03-23T04:18:03;5.10;99.90
46720;DHT22;32452;51.382;-0.002;2024-03-23T04:20:51;5.10;99.90
46720;DHT22;32452;51.382;-0.002;2024-03-23T04:23:36;5.10;99.90
46720;DHT22;32452;51.382;-0.002;2024-03-23T04:26:21;5.10;99.90
46720;DHT22;32452;51.382;-0.002;2024-03-23T04:29:06;5.10;99.90
46720;DHT22;32452;51.382;-0.002;2024-03-23T04:31:50;5.10;99.90
46720;DHT22;32452;51.382;-0.002;2024-03-23T04:34:34;5.00;99.90
46720;DHT22;32452;51.382;-0.002;2024-03-23T04:37:19;5.00;99.90
46720;DHT22;32452;51.382;-0.002;2024-03-23T04:40:04;5.00;99.90
46720;DHT22;32452;51.382;-0.002;2024-03-23T04:42:50;5.00;99.90
46720;DHT22;32452;51.382;-0.002;2024-03-23T04:45:34;5.00;99.90
46720;DHT22;32452;51.382;-0.002;2024-03-23T04:48:22;5.00;99.90
46720;DHT22;32452;51.382;-0.002;2024-03-23T04:51:07;5.00;99.90
46720;DHT22;32452;51.382;-0.002;2024-03-23T04:53:51;5.00;99.90
46720;DHT22;32452;51.382;-0.002;2024-03-23T04:56:36;5.00;99.90
46720;DHT22;32452;51.382;-0.002;2024-03-23T04:59:21;5.00;99.90
46720;DHT22;32452;51.382;-0.002;2024-03-23T05:02:05;5.00;99.90
46720;DHT22;32452;51.382;-0.002;2024-03-23T05:04:50;5.00;99.90
46720;DHT22;32452;51.382;-0.002;2024-03-23T05:07:34;5.00;99.90
46720;DHT22;32452;51.382;-0.002;2024-03-23T05:10:19;5.00;99.90
46720;DHT22;32452;51.382;-0.002;2024-03-23T05:13:04;4.90;99.90
46720;DHT22;32452;51.382;-0.002;2024-03-23T05:15:55;4.90;99.90
46720;DHT22;32452;51.382;-0.002;2024-03-23T05:18:40;4.90;99.90
46720;DHT22;32452;51.382;-0.002;2024-03-23T05:21:24;4.90;99.90
46720;DHT22;32452;51.382;-0.002;2024-03-23T05:24:09;4.90;99.90
46720;DHT22;32452;51.382;-0.002;2024-03-23T05:26:54;4.80;99.90
46720;DHT22;32452;51.382;-0.002;2024-03-23T05:29:38;4.80;99.90
46720;DHT22;32452;51.382;-0.002;2024-03-23T05:32:23;4.80;99.90
46720;DHT22;32452;51.382;-0.002;2024-03-23T05:35:09;4.80;99.90
46720;DHT22;32452;51.382;-0.002;2024-03-23T05:37:53;4.80;99.90
46720;DHT22;32452;51.382;-0.002;2024-03-23T05:40:38;4.80;99.90
46720;DHT22;32452;51.382;-0.002;2024-03-23T05:43:24;4.70;99.90
46720;DHT22;32452;51.382;-0.002;2024-03-23T05:46:09;4.70;99.90
46720;DHT22;32452;51.382;-0.002;2024-03-23T05:49:01;4.70;99.90
46720;DHT22;32452;51.382;-0.002;2024-03-23T05:51:45;4.70;99.90
46720;DHT22;32452;51.382;-0.002;2024-03-23T05:54:30;4.70;99.90
46720;DHT22;32452;51.382;-0.002;2024-03-23T05:57:15;4.70;99.90
46720;DHT22;32452;51.382;-0.002;2024-03-23T05:59:59;4.60;99.90
46720;DHT22;32452;51.382;-0.002;2024-03-23T06:02:44;4.60;99.90
46720;DHT22;32452;51.382;-0.002;2024-03-23T06:05:29;4.60;99.90
46720;DHT22;32452;51.382;-0.002;2024-03-23T06:08:14;4.60;99.90
46720;DHT22;32452;51.382;-0.002;2024-03-23T06:10:59;4.70;99.90
46720;DHT22;32452;51.382;-0.002;2024-03-23T06:13:44;4.70;99.90
46720;DHT22;32452;51.382;-0.002;2024-03-23T06:16:28;4.70;99.90
46720;DHT22;32452;51.382;-0.002;2024-03-23T06:19:14;4.70;99.90
46720;DHT22;32452;51.382;-0.002;2024-03-23T06:21:59;4.70;99.90
46720;DHT22;32452;51.382;-0.002;2024-03-23T06:24:44;4.70;99.90
46720;DHT22;32452;51.382;-0.002;2024-03-23T06:27:29;4.70;99.90
46720;DHT22;32452;51.382;-0.002;2024-03-23T06:30:13;4.80;99.90
46720;DHT22;32452;51.382;-0.002;2024-03-23T06:32:58;4.80;99.90
46720;DHT22;32452;51.382;-0.002;2024-03-23T06:35:43;4.80;99.90
46720;DHT22;32452;51.382;-0.002;2024-03-23T06:38:33;4.90;99.90
46720;DHT22;32452;51.382;-0.002;2024-03-23T06:41:19;4.90;99.90
46720;DHT22;32452;51.382;-0.002;2024-03-23T06:44:04;4.90;99.90
46720;DHT22;32452;51.382;-0.002;2024-03-23T06:46:49;5.00;99.90
46720;DHT22;32452;51.382;-0.002;2024-03-23T06:49:34;5.00;99.90
46720;DHT22;32452;51.382;-0.002;2024-03-23T06:52:18;5.00;99.90
46720;DHT22;32452;51.382;-0.002;2024-03-23T06:55:03;5.00;99.90
46720;DHT22;32452;51.382;-0.002;2024-03-23T06:57:49;5.10;99.90
46720;DHT22;32452;51.382;-0.002;2024-03-23T07:00:33;5.10;99.90
46720;DHT22;32452;51.382;-0.002;2024-03-23T07:03:18;5.10;99.90
46720;DHT22;32452;51.382;-0.002;2024-03-23T07:06:03;5.20;99.90
46720;DHT22;32452;51.382;-0.002;2024-03-23T07:08:47;5.20;99.90
46720;DHT22;32452;51.382;-0.002;2024-03-23T07:11:32;5.30;99.90
46720;DHT22;32452;51.382;-0.002;2024-03-23T07:14:17;5.30;99.90
46720;DHT22;32452;51.382;-0.002;2024-03-23T07:17:01;5.40;99.90
46720;DHT22;32452;51.382;-0.002;2024-03-23T07:19:46;5.50;99.90
46720;DHT22;32452;51.382;-0.002;2024-03-23T07:22:31;6.20;99.90
46720;DHT22;32452;51.382;-0.002;2024-03-23T07:25:16;7.10;99.90
46720;DHT22;32452;51.382;-0.002;2024-03-23T07:28:01;7.90;99.90
46720;DHT22;32452;51.382;-0.002;2024-03-23T07:30:46;8.80;99.90
46720;DHT22;32452;51.382;-0.002;2024-03-23T07:33:31;9.40;99.90
46720;DHT22;32452;51.382;-0.002;2024-03-23T07:36:16;10.00;99.90
46720;DHT22;32452;51.382;-0.002;2024-03-23T07:39:01;10.40;99.50
46720;DHT22;32452;51.382;-0.002;2024-03-23T07:41:45;10.80;98.10
46720;DHT22;32452;51.382;-0.002;2024-03-23T07:44:30;11.20;96.80
46720;DHT22;32452;51.382;-0.002;2024-03-23T07:47:14;11.50;96.00
46720;DHT22;32452;51.382;-0.002;2024-03-23T07:49:59;11.80;94.70
46720;DHT22;32452;51.382;-0.002;2024-03-23T07:52:44;12.00;93.10
46720;DHT22;32452;51.382;-0.002;2024-03-23T07:55:28;12.10;92.40
46720;DHT22;32452;51.382;-0.002;2024-03-23T07:58:13;12.30;91.60
46720;DHT22;32452;51.382;-0.002;2024-03-23T08:01:08;12.50;90.40
46720;DHT22;32452;51.382;-0.002;2024-03-23T08:03:53;12.60;90.00
46720;DHT22;32452;51.382;-0.002;2024-03-23T08:06:38;12.90;88.80
46720;DHT22;32452;51.382;-0.002;2024-03-23T08:09:23;13.00;86.20
46720;DHT22;32452;51.382;-0.002;2024-03-23T08:12:07;13.20;84.90
46720;DHT22;32452;51.382;-0.002;2024-03-23T08:14:52;13.30;83.70
46720;DHT22;32452;51.382;-0.002;2024-03-23T08:17:36;13.40;82.60
46720;DHT22;32452;51.382;-0.002;2024-03-23T08:20:21;13.50;80.60
46720;DHT22;32452;51.382;-0.002;2024-03-23T08:23:06;13.60;79.90
46720;DHT22;32452;51.382;-0.002;2024-03-23T08:25:52;13.80;79.30
46720;DHT22;32452;51.382;-0.002;2024-03-23T08:28:37;14.00;78.10
46720;DHT22;32452;51.382;-0.002;2024-03-23T08:31:22;14.20;77.00
46720;DHT22;32452;51.382;-0.002;2024-03-23T08:34:07;14.40;76.20
46720;DHT22;32452;51.382;-0.002;2024-03-23T08:36:51;14.50;73.80
46720;DHT22;32452;51.382;-0.002;2024-03-23T08:39:36;14.50;72.20
46720;DHT22;32452;51.382;-0.002;2024-03-23T08:42:20;14.50;72.10
46720;DHT22;32452;51.382;-0.002;2024-03-23T08:45:05;14.70;71.50
46720;DHT22;32452;51.382;-0.002;2024-03-23T08:47:52;14.90;70.90
46720;DHT22;32452;51.382;-0.002;2024-03-23T08:50:36;15.00;69.80
46720;DHT22;32452;51.382;-0.002;2024-03-23T08:53:21;15.10;69.20
46720;DHT22;32452;51.382;-0.002;2024-03-23T08:56:06;15.20;67.10
46720;DHT22;32452;51.382;-0.002;2024-03-23T08:58:51;15.20;66.80
46720;DHT22;32452;51.382;-0.002;2024-03-23T09:01:36;15.30;65.50
46720;DHT22;32452;51.382;-0.002;2024-03-23T09:04:20;15.30;64.50
46720;DHT22;32452;51.382;-0.002;2024-03-23T09:07:05;15.40;64.30
46720;DHT22;32452;51.382;-0.002;2024-03-23T09:09:50;15.50;63.60
46720;DHT22;32452;51.382;-0.002;2024-03-23T09:12:34;15.70;63.40
46720;DHT22;32452;51.382;-0.002;2024-03-23T09:15:19;15.90;62.30
46720;DHT22;32452;51.382;-0.002;2024-03-23T09:18:04;16.00;61.50
46720;DHT22;32452;51.382;-0.002;2024-03-23T09:20:49;16.10;60.80
46720;DHT22;32452;51.382;-0.002;2024-03-23T09:23:33;15.60;60.80
46720;DHT22;32452;51.382;-0.002;2024-03-23T09:26:18;15.30;61.70
46720;DHT22;32452;51.382;-0.002;2024-03-23T09:29:04;15.60;61.40
46720;DHT22;32452;51.382;-0.002;2024-03-23T09:31:48;15.90;60.10
46720;DHT22;32452;51.382;-0.002;2024-03-23T09:34:34;15.30;59.80
46720;DHT22;32452;51.382;-0.002;2024-03-23T09:37:19;15.00;61.30
46720;DHT22;32452;51.382;-0.002;2024-03-23T09:40:03;15.30;61.00
46720;DHT22;32452;51.382;-0.002;2024-03-23T09:42:50;15.40;59.00
46720;DHT22;32452;51.382;-0.002;2024-03-23T09:45:39;14.90;58.70
46720;DHT22;32452;51.382;-0.002;2024-03-23T09:48:27;14.70;58.90
46720;DHT22;32452;51.382;-0.002;2024-03-23T09:51:11;14.50;59.90
46720;DHT22;32452;51.382;-0.002;2024-03-23T09:53:57;14.70;60.30
46720;DHT22;32452;51.382;-0.002;2024-03-23T09:56:42;15.00;60.90
46720;DHT22;32452;51.382;-0.002;2024-03-23T09:59:26;15.40;60.10
46720;DHT22;32452;51.382;-0.002;2024-03-23T10:02:11;15.30;59.00
46720;DHT22;32452;51.382;-0.002;2024-03-23T10:04:56;15.20;58.50
46720;DHT22;32452;51.382;-0.002;2024-03-23T10:07:42;15.20;59.10
46720;DHT22;32452;51.382;-0.002;2024-03-23T10:10:28;15.10;59.20
46720;DHT22;32452;51.382;-0.002;2024-03-23T10:13:28;15.00;59.50
46720;DHT22;32452;51.382;-0.002;2024-03-23T10:16:23;14.70;59.20
46720;DHT22;32452;51.382;-0.002;2024-03-23T10:19:08;14.10;59.50
46720;DHT22;32452;51.382;-0.002;2024-03-23T10:21:52;14.10;60.70
46720;DHT22;32452;51.382;-0.002;2024-03-23T10:24:38;14.30;60.60
46720;DHT22;32452;51.382;-0.002;2024-03-23T10:27:23;14.70;61.20
46720;DHT22;32452;51.382;-0.002;2024-03-23T10:30:13;15.30;59.80
46720;DHT22;32452;51.382;-0.002;2024-03-23T10:33:09;15.90;59.40
46720;DHT22;32452;51.382;-0.002;2024-03-23T10:35:54;16.20;58.10
46720;DHT22;32452;51.382;-0.002;2024-03-23T10:38:43;16.10;57.50
46720;DHT22;32452;51.382;-0.002;2024-03-23T10:41:29;16.00;56.50
46720;DHT22;32452;51.382;-0.002;2024-03-23T10:44:17;15.70;56.40
46720;DHT22;32452;51.382;-0.002;2024-03-23T10:47:04;15.90;56.80
46720;DHT22;32452;51.382;-0.002;2024-03-23T10:49:49;16.40;56.80
46720;DHT22;32452;51.382;-0.002;2024-03-23T10:52:34;16.50;56.40
46720;DHT22;32452;51.382;-0.002;2024-03-23T10:55:19;16.40;55.50
46720;DHT22;32452;51.382;-0.002;2024-03-23T10:58:06;16.50;54.70
46720;DHT22;32452;51.382;-0.002;2024-03-23T11:00:50;16.40;53.50
46720;DHT22;32452;51.382;-0.002;2024-03-23T11:03:37;16.10;53.30
46720;DHT22;32452;51.382;-0.002;2024-03-23T11:06:37;15.80;53.50
46720;DHT22;32452;51.382;-0.002;2024-03-23T11:15:12;15.30;53.90
46720;DHT22;32452;51.382;-0.002;2024-03-23T11:18:07;14.90;54.20
46720;DHT22;32452;51.382;-0.002;2024-03-23T11:20:56;14.60;54.70
46720;DHT22;32452;51.382;-0.002;2024-03-23T11:23:41;14.50;55.50
46720;DHT22;32452;51.382;-0.002;2024-03-23T11:26:25;14.40;55.50
46720;DHT22;32452;51.382;-0.002;2024-03-23T11:29:14;14.40;55.90
46720;DHT22;32452;51.382;-0.002;2024-03-23T11:31:59;14.50;55.50
46720;DHT22;32452;51.382;-0.002;2024-03-23T11:34:45;14.80;55.50
46720;DHT22;32452;51.382;-0.002;2024-03-23T11:37:31;15.00;54.60
46720;DHT22;32452;51.382;-0.002;2024-03-23T11:40:19;14.90;54.10
46720;DHT22;32452;51.382;-0.002;2024-03-23T11:43:05;14.90;54.30
46720;DHT22;32452;51.382;-0.002;2024-03-23T11:45:53;15.10;54.80
46720;DHT22;32452;51.382;-0.002;2024-03-23T11:48:39;15.60;54.90
46720;DHT22;32452;51.382;-0.002;2024-03-23T11:51:24;16.00;54.10
46720;DHT22;32452;51.382;-0.002;2024-03-23T11:54:09;16.10;53.30
46720;DHT22;32452;51.382;-0.002;2024-03-23T11:59:40;16.40;52.20
46720;DHT22;32452;51.382;-0.002;2024-03-23T12:02:25;16.40;51.20
46720;DHT22;32452;51.382;-0.002;2024-03-23T12:05:16;16.40;51.10
46720;DHT22;32452;51.382;-0.002;2024-03-23T12:08:23;16.30;50.70
46720;DHT22;32452;51.382;-0.002;2024-03-23T12:11:10;16.10;49.80
46720;DHT22;32452;51.382;-0.002;2024-03-23T12:13:59;16.00;50.40
46720;DHT22;32452;51.382;-0.002;2024-03-23T12:16:44;16.40;50.80
46720;DHT22;32452;51.382;-0.002;2024-03-23T12:19:29;16.60;50.70
46720;DHT22;32452;51.382;-0.002;2024-03-23T12:22:13;16.70;50.20
46720;DHT22;32452;51.382;-0.002;2024-03-23T12:24:58;16.80;49.20
46720;DHT22;32452;51.382;-0.002;2024-03-23T12:27:42;16.60;48.40
46720;DHT22;32452;51.382;-0.002;2024-03-23T12:30:27;16.30;48.00
46720;DHT22;32452;51.382;-0.002;2024-03-23T12:33:11;16.00;48.00
46720;DHT22;32452;51.382;-0.002;2024-03-23T12:35:56;15.80;48.50
46720;DHT22;32452;51.382;-0.002;2024-03-23T12:38:41;15.80;48.90
46720;DHT22;32452;51.382;-0.002;2024-03-23T12:41:25;15.70;49.40
46720;DHT22;32452;51.382;-0.002;2024-03-23T12:44:10;15.70;50.40
46720;DHT22;32452;51.382;-0.002;2024-03-23T12:46:56;16.00;51.30
46720;DHT22;32452;51.382;-0.002;2024-03-23T12:49:41;16.30;51.20
46720;DHT22;32452;51.382;-0.002;2024-03-23T12:52:25;16.70;50.90
46720;DHT22;32452;51.382;-0.002;2024-03-23T12:55:13;16.80;50.30
46720;DHT22;32452;51.382;-0.002;2024-03-23T12:57:57;16.70;50.20
46720;DHT22;32452;51.382;-0.002;2024-03-23T13:00:42;16.60;50.50
46720;DHT22;32452;51.382;-0.002;2024-03-23T13:03:26;16.70;49.50
46720;DHT22;32452;51.382;-0.002;2024-03-23T13:06:11;16.60;49.40
46720;DHT22;32452;51.382;-0.002;2024-03-23T13:08:55;16.50;49.90
46720;DHT22;32452;51.382;-0.002;2024-03-23T13:11:40;16.30;50.60
46720;DHT22;32452;51.382;-0.002;2024-03-23T13:14:25;16.00;51.60
46720;DHT22;32452;51.382;-0.002;2024-03-23T13:17:10;15.60;52.80
46720;DHT22;32452;51.382;-0.002;2024-03-23T13:19:54;15.30;53.90
46720;DHT22;32452;51.382;-0.002;2024-03-23T13:22:42;15.20;55.30
46720;DHT22;32452;51.382;-0.002;2024-03-23T13:25:26;15.30;56.00
46720;DHT22;32452;51.382;-0.002;2024-03-23T13:28:11;15.20;56.20
46720;DHT22;32452;51.382;-0.002;2024-03-23T13:30:56;14.90;56.50
46720;DHT22;32452;51.382;-0.002;2024-03-23T13:33:48;14.60;57.10
46720;DHT22;32452;51.382;-0.002;2024-03-23T13:36:33;14.20;57.60
46720;DHT22;32452;51.382;-0.002;2024-03-23T13:39:17;14.00;58.30
46720;DHT22;32452;51.382;-0.002;2024-03-23T13:42:02;13.80;58.80
46720;DHT22;32452;51.382;-0.002;2024-03-23T13:44:48;13.60;59.30
46720;DHT22;32452;51.382;-0.002;2024-03-23T13:47:34;13.30;61.20
46720;DHT22;32452;51.382;-0.002;2024-03-23T13:50:19;12.90;65.10
46720;DHT22;32452;51.382;-0.002;2024-03-23T13:53:04;12.30;67.00
46720;DHT22;32452;51.382;-0.002;2024-03-23T13:55:48;11.50;68.30
46720;DHT22;32452;51.382;-0.002;2024-03-23T13:58:33;11.00;70.40
46720;DHT22;32452;51.382;-0.002;2024-03-23T14:01:17;10.60;72.50
46720;DHT22;32452;51.382;-0.002;2024-03-23T14:04:02;10.40;74.10
46720;DHT22;32452;51.382;-0.002;2024-03-23T14:06:47;10.20;75.40
46720;DHT22;32452;51.382;-0.002;2024-03-23T14:09:32;10.10;76.70
46720;DHT22;32452;51.382;-0.002;2024-03-23T14:12:17;10.00;77.90
46720;DHT22;32452;51.382;-0.002;2024-03-23T14:15:03;9.90;78.90
46720;DHT22;32452;51.382;-0.002;2024-03-23T14:17:49;9.90;79.50
46720;DHT22;32452;51.382;-0.002;2024-03-23T14:20:34;9.90;80.20
46720;DHT22;32452;51.382;-0.002;2024-03-23T14:23:18;10.00;81.10
46720;DHT22;32452;51.382;-0.002;2024-03-23T14:26:03;10.10;82.00
46720;DHT22;32452;51.382;-0.002;2024-03-23T14:28:49;10.20;83.20
46720;DHT22;32452;51.382;-0.002;2024-03-23T14:31:34;10.40;83.90
46720;DHT22;32452;51.382;-0.002;2024-03-23T14:34:20;10.60;84.20
46720;DHT22;32452;51.382;-0.002;2024-03-23T14:37:04;10.80;84.80
46720;DHT22;32452;51.382;-0.002;2024-03-23T14:39:50;10.90;85.00
46720;DHT22;32452;51.382;-0.002;2024-03-23T14:42:35;11.10;85.10
46720;DHT22;32452;51.382;-0.002;2024-03-23T14:45:20;11.10;84.80
46720;DHT22;32452;51.382;-0.002;2024-03-23T14:48:05;11.20;84.20
46720;DHT22;32452;51.382;-0.002;2024-03-23T14:50:56;11.20;83.70
46720;DHT22;32452;51.382;-0.002;2024-03-23T14:53:45;11.30;83.30
46720;DHT22;32452;51.382;-0.002;2024-03-23T14:56:29;11.30;83.00
46720;DHT22;32452;51.382;-0.002;2024-03-23T14:59:14;11.30;82.70
46720;DHT22;32452;51.382;-0.002;2024-03-23T15:01:58;11.30;82.50
46720;DHT22;32452;51.382;-0.002;2024-03-23T15:04:44;11.30;82.50
46720;DHT22;32452;51.382;-0.002;2024-03-23T15:07:28;11.20;82.30
46720;DHT22;32452;51.382;-0.002;2024-03-23T15:10:13;11.10;82.40
46720;DHT22;32452;51.382;-0.002;2024-03-23T15:12:57;11.10;82.60
46720;DHT22;32452;51.382;-0.002;2024-03-23T15:15:42;11.10;82.70
46720;DHT22;32452;51.382;-0.002;2024-03-23T15:18:33;11.10;82.90
46720;DHT22;32452;51.382;-0.002;2024-03-23T15:21:19;11.10;83.50
46720;DHT22;32452;51.382;-0.002;2024-03-23T15:24:06;11.10;82.60
46720;DHT22;32452;51.382;-0.002;2024-03-23T15:26:51;11.10;82.50
46720;DHT22;32452;51.382;-0.002;2024-03-23T15:29:36;11.10;82.10
46720;DHT22;32452;51.382;-0.002;2024-03-23T15:32:21;11.10;82.00
46720;DHT22;32452;51.382;-0.002;2024-03-23T15:35:06;11.10;82.20
46720;DHT22;32452;51.382;-0.002;2024-03-23T15:37:52;11.00;82.40
46720;DHT22;32452;51.382;-0.002;2024-03-23T15:40:36;11.10;82.60
46720;DHT22;32452;51.382;-0.002;2024-03-23T15:43:21;11.00;82.20
46720;DHT22;32452;51.382;-0.002;2024-03-23T15:46:05;11.00;81.80
46720;DHT22;32452;51.382;-0.002;2024-03-23T15:48:50;11.00;81.70
46720;DHT22;32452;51.382;-0.002;2024-03-23T15:51:35;11.00;81.90
46720;DHT22;32452;51.382;-0.002;2024-03-23T15:54:21;11.00;81.60
46720;DHT22;32452;51.382;-0.002;2024-03-23T15:57:06;11.10;81.30
46720;DHT22;32452;51.382;-0.002;2024-03-23T15:59:51;11.10;80.60
46720;DHT22;32452;51.382;-0.002;2024-03-23T16:02:36;11.10;81.00
46720;DHT22;32452;51.382;-0.002;2024-03-23T16:05:20;10.90;80.70
46720;DHT22;32452;51.382;-0.002;2024-03-23T16:08:06;10.50;81.50
46720;DHT22;32452;51.382;-0.002;2024-03-23T16:10:53;10.10;82.70
46720;DHT22;32452;51.382;-0.002;2024-03-23T16:13:41;9.80;83.60
46720;DHT22;32452;51.382;-0.002;2024-03-23T16:16:28;9.70;84.70
46720;DHT22;32452;51.382;-0.002;2024-03-23T16:19:12;9.70;85.90
46720;DHT22;32452;51.382;-0.002;2024-03-23T16:21:58;9.80;87.00
46720;DHT22;32452;51.382;-0.002;2024-03-23T16:24:44;9.90;87.90
46720;DHT22;32452;51.382;-0.002;2024-03-23T16:27:29;10.00;89.20
46720;DHT22;32452;51.382;-0.002;2024-03-23T16:30:14;10.00;88.60
46720;DHT22;32452;51.382;-0.002;2024-03-23T16:32:59;10.10;88.50
46720;DHT22;32452;51.382;-0.002;2024-03-23T16:35:44;10.00;88.60
46720;DHT22;32452;51.382;-0.002;2024-03-23T16:38:29;10.00;89.10
46720;DHT22;32452;51.382;-0.002;2024-03-23T16:41:14;10.00;89.40
46720;DHT22;32452;51.382;-0.002;2024-03-23T16:44:00;9.90;89.60
46720;DHT22;32452;51.382;-0.002;2024-03-23T16:46:44;9.90;89.80
46720;DHT22;32452;51.382;-0.002;2024-03-23T16:49:29;9.80;90.30
46720;DHT22;32452;51.382;-0.002;2024-03-23T16:52:14;9.80;90.10
46720;DHT22;32452;51.382;-0.002;2024-03-23T16:54:58;9.80;90.10
46720;DHT22;32452;51.382;-0.002;2024-03-23T16:57:43;9.70;90.00
46720;DHT22;32452;51.382;-0.002;2024-03-23T17:00:27;9.70;90.10
46720;DHT22;32452;51.382;-0.002;2024-03-23T17:03:12;9.70;90.10
46720;DHT22;32452;51.382;-0.002;2024-03-23T17:05:57;9.70;90.10
46720;DHT22;32452;51.382;-0.002;2024-03-23T17:08:42;9.70;90.20
46720;DHT22;32452;51.382;-0.002;2024-03-23T17:11:27;9.60;90.20
46720;DHT22;32452;51.382;-0.002;2024-03-23T17:14:12;9.70;90.20
46720;DHT22;32452;51.382;-0.002;2024-03-23T17:16:59;9.70;90.20
46720;DHT22;32452;51.382;-0.002;2024-03-23T17:19:44;9.70;90.20
46720;DHT22;32452;51.382;-0.002;2024-03-23T17:22:29;9.70;90.10
46720;DHT22;32452;51.382;-0.002;2024-03-23T17:25:13;9.70;90.00
46720;DHT22;32452;51.382;-0.002;2024-03-23T17:27:58;9.70;89.70
46720;DHT22;32452;51.382;-0.002;2024-03-23T17:30:43;9.70;89.30
46720;DHT22;32452;51.382;-0.002;2024-03-23T17:33:28;9.70;88.50
46720;DHT22;32452;51.382;-0.002;2024-03-23T17:36:12;9.70;87.40
46720;DHT22;32452;51.382;-0.002;2024-03-23T17:38:57;9.70;86.20
46720;DHT22;32452;51.382;-0.002;2024-03-23T17:41:42;9.70;85.20
46720;DHT22;32452;51.382;-0.002;2024-03-23T17:44:26;9.60;84.30
46720;DHT22;32452;51.382;-0.002;2024-03-23T17:47:11;9.60;83.70
46720;DHT22;32452;51.382;-0.002;2024-03-23T17:49:55;9.50;82.80
46720;DHT22;32452;51.382;-0.002;2024-03-23T17:52:42;9.50;82.40
46720;DHT22;32452;51.382;-0.002;2024-03-23T17:55:27;9.40;81.90
46720;DHT22;32452;51.382;-0.002;2024-03-23T17:58:11;9.40;81.60
46720;DHT22;32452;51.382;-0.002;2024-03-23T18:00:57;9.30;81.20
46720;DHT22;32452;51.382;-0.002;2024-03-23T18:03:41;9.20;81.20
46720;DHT22;32452;51.382;-0.002;2024-03-23T18:06:26;9.10;81.20
46720;DHT22;32452;51.382;-0.002;2024-03-23T18:09:10;9.10;81.20
46720;DHT22;32452;51.382;-0.002;2024-03-23T18:11:56;9.00;81.00
46720;DHT22;32452;51.382;-0.002;2024-03-23T18:14:40;8.90;80.90
46720;DHT22;32452;51.382;-0.002;2024-03-23T18:17:25;8.90;80.90